createdAt,value
2023-05-13T00:00:50.035Z,99469.33
2023-05-13T00:03:18.642Z,99471.72
2023-05-13T00:05:46.978Z,99465.50
2023-05-13T00:08:14.987Z,99464.02
2023-05-13T00:10:42.893Z,99463.88
2023-05-13T00:13:10.870Z,99461.45
2023-05-13T00:15:38.798Z,99462.39
2023-05-13T00:18:06.980Z,99460.67
2023-05-13T00:20:34.905Z,99462.70
2023-05-13T00:23:03.389Z,99458.15
2023-05-13T00:25:31.371Z,99458.27
2023-05-13T00:27:59.366Z,99454.70
2023-05-13T00:30:27.304Z,99457.34
2023-05-13T00:32:55.445Z,99462.31
2023-05-13T00:35:23.441Z,99464.27
2023-05-13T00:37:51.328Z,99465.25
2023-05-13T00:40:24.570Z,99464.52
2023-05-13T00:42:53.983Z,99464.41
2023-05-13T00:45:21.914Z,99464.13
2023-05-13T00:47:50.361Z,99463.14
2023-05-13T00:50:18.749Z,99460.16
2023-05-13T00:52:49.876Z,99463.48
2023-05-13T00:55:17.916Z,99463.70
2023-05-13T00:57:45.883Z,99466.74
2023-05-13T01:00:14.380Z,99466.78
2023-05-13T01:02:57.340Z,99469.70
2023-05-13T01:05:35.318Z,99470.77
2023-05-13T01:08:06.188Z,99475.88
2023-05-13T01:10:49.852Z,99475.30
2023-05-13T01:13:24.783Z,99476.67
2023-05-13T01:16:10.496Z,99478.06
2023-05-13T01:18:43.783Z,99478.74
2023-05-13T01:21:12.516Z,99482.09
2023-05-13T01:23:40.509Z,99484.00
2023-05-13T01:26:08.634Z,99486.08
2023-05-13T01:28:36.877Z,99485.88
2023-05-13T01:31:06.227Z,99487.40
2023-05-13T01:33:34.331Z,99489.26
2023-05-13T01:36:03.215Z,99492.69
2023-05-13T01:38:33.026Z,99491.77
2023-05-13T01:41:01.394Z,99494.19
2023-05-13T01:43:31.459Z,99496.80
2023-05-13T01:46:01.028Z,99491.86
2023-05-13T01:48:29.101Z,99492.22
2023-05-13T01:50:58.411Z,99495.16
2023-05-13T01:53:26.954Z,99491.34
2023-05-13T01:55:54.819Z,99491.02
2023-05-13T01:58:22.956Z,99493.66
2023-05-13T02:00:51.029Z,99496.46
2023-05-13T02:03:19.456Z,99494.59
2023-05-13T02:05:49.026Z,99494.80
2023-05-13T02:08:16.909Z,99492.99
2023-05-13T02:10:45.300Z,99492.10
2023-05-13T02:13:13.250Z,99490.58
2023-05-13T02:15:41.724Z,99494.39
2023-05-13T02:18:10.434Z,99494.54
2023-05-13T02:20:38.456Z,99495.17
2023-05-13T02:23:07.005Z,99495.66
2023-05-13T02:25:36.836Z,99489.14
2023-05-13T02:28:04.940Z,99488.28
2023-05-13T02:30:33.053Z,99484.63
2023-05-13T02:33:01.652Z,99480.83
2023-05-13T02:35:30.148Z,99486.55
2023-05-13T02:37:58.817Z,99489.11
2023-05-13T02:40:27.545Z,99487.32
2023-05-13T02:42:55.877Z,99486.05
2023-05-13T02:45:26.110Z,99489.21
2023-05-13T02:47:54.399Z,99484.48
2023-05-13T02:50:23.272Z,99484.94
2023-05-13T02:52:51.901Z,99482.77
2023-05-13T02:55:20.075Z,99482.56
2023-05-13T02:57:48.048Z,99487.10
2023-05-13T03:00:16.760Z,99487.92
2023-05-13T03:02:44.783Z,99485.77
2023-05-13T03:05:12.767Z,99485.89
2023-05-13T03:07:40.764Z,99488.96
2023-05-13T03:10:09.290Z,99490.44
2023-05-13T03:12:37.203Z,99498.92
2023-05-13T03:15:05.337Z,99503.98
2023-05-13T03:17:33.602Z,99498.27
2023-05-13T03:20:01.642Z,99496.14
2023-05-13T03:22:29.896Z,99499.64
2023-05-13T03:24:58.611Z,99501.24
2023-05-13T03:27:33.342Z,99497.88
2023-05-13T03:30:01.317Z,99496.70
2023-05-13T03:32:32.013Z,99494.04
2023-05-13T03:35:03.187Z,99490.92
2023-05-13T03:37:31.405Z,99494.30
2023-05-13T03:39:59.384Z,99494.19
2023-05-13T03:42:27.939Z,99494.21
2023-05-13T03:44:57.240Z,99495.48
2023-05-13T03:47:25.627Z,99495.37
2023-05-13T03:49:54.637Z,99492.88
2023-05-13T03:52:23.213Z,99496.89
2023-05-13T03:54:51.197Z,99496.95
2023-05-13T03:57:19.248Z,99495.80
2023-05-13T03:59:47.611Z,99502.32
2023-05-13T04:02:15.525Z,99507.09
2023-05-13T04:04:43.474Z,99509.92
2023-05-13T04:07:11.385Z,99512.92
2023-05-13T04:09:39.411Z,99515.43
2023-05-13T04:12:07.534Z,99516.67
2023-05-13T04:14:35.444Z,99517.41
2023-05-13T04:17:04.150Z,99519.39
2023-05-13T04:19:32.193Z,99515.96
2023-05-13T04:22:00.289Z,99517.24
2023-05-13T04:24:28.145Z,99516.66
2023-05-13T04:26:56.189Z,99514.17
2023-05-13T04:29:24.925Z,99511.14
2023-05-13T04:31:52.924Z,99511.11
2023-05-13T04:34:21.326Z,99514.45
2023-05-13T04:36:49.760Z,99519.72
2023-05-13T04:39:17.710Z,99527.46
2023-05-13T04:41:46.353Z,99524.32
2023-05-13T04:44:14.394Z,99528.04
2023-05-13T04:46:45.010Z,99527.91
2023-05-13T04:49:13.104Z,99527.56
2023-05-13T04:51:41.713Z,99526.92
2023-05-13T04:54:10.202Z,99526.84
2023-05-13T04:56:38.176Z,99528.08
2023-05-13T04:59:06.133Z,99526.90
2023-05-13T05:01:34.184Z,99527.04
2023-05-13T05:04:02.727Z,99531.68
2023-05-13T05:06:32.603Z,99533.65
2023-05-13T05:09:01.231Z,99532.73
2023-05-13T05:11:29.300Z,99533.55
2023-05-13T05:13:57.745Z,99540.41
2023-05-13T05:16:25.776Z,99543.66
2023-05-13T05:18:53.806Z,99541.10
2023-05-13T05:21:21.864Z,99539.77
2023-05-13T05:23:50.616Z,99539.56
2023-05-13T05:26:19.808Z,99544.58
2023-05-13T05:28:48.618Z,99552.08
2023-05-13T05:31:18.293Z,99551.42
2023-05-13T05:33:46.309Z,99553.99
2023-05-13T05:36:14.244Z,99555.89
2023-05-13T05:38:42.194Z,99560.15
2023-05-13T05:41:11.032Z,99558.48
2023-05-13T05:43:39.003Z,99557.98
2023-05-13T05:46:07.125Z,99557.63
2023-05-13T05:48:35.182Z,99561.31
2023-05-13T05:51:04.224Z,99561.94
2023-05-13T05:53:37.637Z,99560.17
2023-05-13T05:56:06.894Z,99559.43
2023-05-13T05:58:36.019Z,99560.54
2023-05-13T06:01:04.061Z,99560.02
2023-05-13T06:03:32.226Z,99556.97
2023-05-13T06:06:00.415Z,99554.34
2023-05-13T06:08:30.464Z,99557.22
2023-05-13T06:10:59.446Z,99559.61
2023-05-13T06:13:27.605Z,99558.98
2023-05-13T06:15:56.451Z,99559.79
2023-05-13T06:18:24.630Z,99560.40
2023-05-13T06:20:52.559Z,99557.38
2023-05-13T06:23:20.502Z,99557.78
2023-05-13T06:25:48.507Z,99555.48
2023-05-13T06:28:16.556Z,99556.02
2023-05-13T06:30:46.030Z,99559.95
2023-05-13T06:33:14.057Z,99558.98
2023-05-13T06:35:42.310Z,99564.31
2023-05-13T06:38:13.247Z,99566.30
2023-05-13T06:40:41.416Z,99568.52
2023-05-13T06:43:09.439Z,99575.64
2023-05-13T06:45:40.366Z,99576.71
2023-05-13T06:48:08.661Z,99576.96
2023-05-13T06:50:38.167Z,99573.91
2023-05-13T06:53:06.155Z,99574.85
2023-05-13T06:55:35.993Z,99571.95
2023-05-13T06:58:03.924Z,99575.61
2023-05-13T07:00:31.858Z,99573.40
2023-05-13T07:02:59.974Z,99572.30
2023-05-13T07:05:27.930Z,99576.28
2023-05-13T07:07:55.925Z,99574.12
2023-05-13T07:10:24.244Z,99571.89
2023-05-13T07:12:52.681Z,99573.34
2023-05-13T07:15:21.234Z,99572.66
2023-05-13T07:17:49.531Z,99572.95
2023-05-13T07:20:22.230Z,99573.58
2023-05-13T07:22:51.250Z,99569.05
2023-05-13T07:25:19.246Z,99571.98
2023-05-13T07:27:47.939Z,99569.16
2023-05-13T07:30:16.111Z,99565.38
2023-05-13T07:32:44.308Z,99565.21
2023-05-13T07:35:12.422Z,99560.52
2023-05-13T07:37:40.486Z,99561.03
2023-05-13T07:40:09.088Z,99555.67
2023-05-13T07:42:37.602Z,99560.30
2023-05-13T07:45:06.678Z,99558.02
2023-05-13T07:47:34.829Z,99562.17
2023-05-13T07:50:02.889Z,99561.69
2023-05-13T07:52:31.805Z,99568.83
2023-05-13T07:54:59.692Z,99572.45
2023-05-13T07:57:27.681Z,99571.17
2023-05-13T07:59:55.718Z,99575.61
2023-05-13T08:02:24.554Z,99577.77
2023-05-13T08:04:52.548Z,99577.02
2023-05-13T08:07:20.607Z,99579.30
2023-05-13T08:09:48.522Z,99584.35
2023-05-13T08:12:16.433Z,99582.60
2023-05-13T08:14:44.310Z,99585.97
2023-05-13T08:17:12.186Z,99585.38
2023-05-13T08:19:40.441Z,99584.70
2023-05-13T08:22:08.379Z,99587.77
2023-05-13T08:24:36.309Z,99591.30
2023-05-13T08:27:05.827Z,99589.64
2023-05-13T08:29:33.720Z,99587.91
2023-05-13T08:32:01.723Z,99589.19
2023-05-13T08:34:29.708Z,99589.61
2023-05-13T08:36:57.544Z,99590.98
2023-05-13T08:39:25.574Z,99590.48
2023-05-13T08:41:56.938Z,99593.96
2023-05-13T08:44:28.764Z,99597.05
2023-05-13T08:47:18.724Z,99594.32
2023-05-13T08:49:47.062Z,99593.09
2023-05-13T08:52:14.958Z,99592.77
2023-05-13T08:54:44.207Z,99596.48
2023-05-13T08:57:12.132Z,99596.77
2023-05-13T08:59:40.373Z,99601.20
2023-05-13T09:02:10.427Z,99601.33
2023-05-13T09:04:41.277Z,99602.05
2023-05-13T09:07:09.846Z,99601.96
2023-05-13T09:09:38.060Z,99602.29
2023-05-13T09:12:06.216Z,99605.07
2023-05-13T09:14:34.679Z,99599.99
2023-05-13T09:17:02.615Z,99599.52
2023-05-13T09:19:31.230Z,99601.81
2023-05-13T09:21:59.449Z,99603.41
2023-05-13T09:24:27.862Z,99600.43
2023-05-13T09:26:55.747Z,99601.52
2023-05-13T09:29:24.771Z,99601.45
2023-05-13T09:31:58.181Z,99605.48
2023-05-13T09:34:27.008Z,99604.09
2023-05-13T09:37:03.250Z,99599.67
2023-05-13T09:39:34.337Z,99602.27
2023-05-13T09:42:04.669Z,99602.41
2023-05-13T09:44:34.100Z,99603.30
2023-05-13T09:47:02.930Z,99602.79
2023-05-13T09:49:31.863Z,99604.02
2023-05-13T09:51:59.919Z,99605.27
2023-05-13T09:54:34.362Z,99604.62
2023-05-13T09:57:03.160Z,99604.50
2023-05-13T09:59:36.821Z,99601.70
2023-05-13T10:02:07.112Z,99603.55
2023-05-13T10:04:35.439Z,99605.15
2023-05-13T10:07:05.131Z,99603.09
2023-05-13T10:09:37.407Z,99605.61
2023-05-13T10:12:08.606Z,99606.16
2023-05-13T10:14:37.463Z,99608.28
2023-05-13T10:17:06.630Z,99607.63
2023-05-13T10:19:35.294Z,99605.34
2023-05-13T10:22:03.654Z,99607.08
2023-05-13T10:24:32.604Z,99609.58
2023-05-13T10:27:01.880Z,99610.38
2023-05-13T10:29:30.112Z,99613.40
2023-05-13T10:31:59.898Z,99617.16
2023-05-13T10:34:28.777Z,99611.48
2023-05-13T10:37:06.190Z,99607.95
2023-05-13T10:40:06.633Z,99609.78
2023-05-13T10:42:43.133Z,99608.00
2023-05-13T10:45:11.432Z,99607.34
2023-05-13T10:47:39.648Z,99607.78
2023-05-13T10:50:23.469Z,99611.42
2023-05-13T10:52:56.099Z,99612.34
2023-05-13T10:55:26.200Z,99611.59
2023-05-13T10:58:13.297Z,99610.34
2023-05-13T11:00:45.671Z,99609.27
2023-05-13T11:03:16.622Z,99608.66
2023-05-13T11:05:58.726Z,99602.73
2023-05-13T11:08:40.365Z,99602.42
2023-05-13T11:11:23.585Z,99607.39
2023-05-13T11:13:53.313Z,99608.45
2023-05-13T11:16:23.175Z,99608.66
2023-05-13T11:18:53.106Z,99603.58
2023-05-13T11:21:39.560Z,99601.23
2023-05-13T11:24:08.232Z,99598.05
2023-05-13T11:26:54.361Z,99597.77
2023-05-13T11:29:29.897Z,99602.19
2023-05-13T11:32:00.523Z,99599.85
2023-05-13T11:34:29.733Z,99598.12
2023-05-13T11:37:04.127Z,99599.05
2023-05-13T11:39:33.121Z,99591.16
2023-05-13T11:42:02.999Z,99594.79
2023-05-13T11:44:31.134Z,99592.34
2023-05-13T11:47:00.893Z,99589.98
2023-05-13T11:49:34.646Z,99593.98
2023-05-13T11:52:04.511Z,99595.83
2023-05-13T11:54:32.709Z,99595.81
2023-05-13T11:57:00.839Z,99597.23
2023-05-13T11:59:35.869Z,99590.84
2023-05-13T12:02:06.798Z,99595.59
2023-05-13T12:04:35.464Z,99590.53
2023-05-13T12:07:03.667Z,99587.06
2023-05-13T12:09:31.528Z,99588.27
2023-05-13T12:11:59.615Z,99591.51
2023-05-13T12:14:27.965Z,99592.75
2023-05-13T12:16:57.401Z,99590.30
2023-05-13T12:19:25.423Z,99593.41
2023-05-13T12:21:53.473Z,99594.87
2023-05-13T12:24:22.207Z,99596.10
2023-05-13T12:26:50.437Z,99594.71
2023-05-13T12:29:18.362Z,99595.67
2023-05-13T12:32:04.118Z,99599.75
2023-05-13T12:34:33.845Z,99603.89
2023-05-13T12:37:14.637Z,99608.99
2023-05-13T12:39:42.941Z,99621.01
2023-05-13T12:42:18.317Z,99635.27
2023-05-13T12:44:47.145Z,99644.23
2023-05-13T12:47:19.884Z,99646.91
2023-05-13T12:49:54.963Z,99646.17
2023-05-13T12:52:22.918Z,99653.99
2023-05-13T12:54:50.891Z,99655.16
2023-05-13T12:57:20.604Z,99651.19
2023-05-13T12:59:48.674Z,99641.47
2023-05-13T13:02:16.571Z,99646.60
2023-05-13T13:04:44.514Z,99654.30
2023-05-13T13:07:14.730Z,99641.33
2023-05-13T13:09:42.859Z,99636.77
2023-05-13T13:12:10.932Z,99639.23
2023-05-13T13:14:38.798Z,99644.64
2023-05-13T13:17:07.130Z,99646.93
2023-05-13T13:19:35.043Z,99640.98
2023-05-13T13:22:03.196Z,99641.52
2023-05-13T13:24:31.577Z,99645.65
2023-05-13T13:26:59.507Z,99652.64
2023-05-13T13:29:27.383Z,99637.60
2023-05-13T13:31:55.328Z,99617.21
2023-05-13T13:34:23.272Z,99616.13
2023-05-13T13:36:51.236Z,99619.94
2023-05-13T13:39:19.294Z,99614.70
2023-05-13T13:41:47.349Z,99610.69
2023-05-13T13:44:15.413Z,99611.53
2023-05-13T13:46:43.557Z,99606.42
2023-05-13T13:49:20.335Z,99603.30
2023-05-13T13:51:53.881Z,99602.58
2023-05-13T13:54:21.835Z,99601.54
2023-05-13T13:56:49.871Z,99602.96
2023-05-13T13:59:19.337Z,99603.13
2023-05-13T14:01:47.500Z,99601.34
2023-05-13T14:04:19.880Z,99598.04
2023-05-13T14:06:47.864Z,99594.31
2023-05-13T14:09:16.209Z,99593.54
2023-05-13T14:11:44.257Z,99591.52
2023-05-13T14:14:12.341Z,99590.01
2023-05-13T14:16:40.398Z,99588.39
2023-05-13T14:19:08.586Z,99588.10
2023-05-13T14:21:36.543Z,99584.54
2023-05-13T14:24:04.642Z,99582.31
2023-05-13T14:26:32.596Z,99585.31
2023-05-13T14:29:00.484Z,99583.66
2023-05-13T14:31:28.510Z,99587.08
2023-05-13T14:33:56.770Z,99585.39
2023-05-13T14:36:26.686Z,99584.66
2023-05-13T14:38:54.776Z,99584.17
2023-05-13T14:41:23.240Z,99581.83
2023-05-13T14:43:51.615Z,99582.17
2023-05-13T14:46:19.624Z,99584.14
2023-05-13T14:48:47.694Z,99587.48
2023-05-13T14:51:15.659Z,99587.02
2023-05-13T14:53:43.616Z,99583.85
2023-05-13T14:56:11.635Z,99582.10
2023-05-13T14:58:39.584Z,99588.05
2023-05-13T15:01:07.525Z,99583.73
2023-05-13T15:03:35.552Z,99582.27
2023-05-13T15:06:03.725Z,99580.52
2023-05-13T15:08:31.846Z,99579.60
2023-05-13T15:11:00.453Z,99578.41
2023-05-13T15:13:29.784Z,99579.78
2023-05-13T15:15:57.668Z,99577.82
2023-05-13T15:18:25.647Z,99576.34
2023-05-13T15:20:53.566Z,99575.59
2023-05-13T15:23:21.529Z,99575.34
2023-05-13T15:25:49.548Z,99579.60
2023-05-13T15:28:17.466Z,99577.77
2023-05-13T15:30:45.519Z,99576.16
2023-05-13T15:33:13.559Z,99577.14
2023-05-13T15:35:42.532Z,99577.48
2023-05-13T15:38:10.865Z,99575.55
2023-05-13T15:40:39.251Z,99571.26
2023-05-13T15:43:07.126Z,99570.55
2023-05-13T15:45:35.121Z,99569.63
2023-05-13T15:48:03.161Z,99566.84
2023-05-13T15:50:31.201Z,99562.19
2023-05-13T15:52:59.431Z,99562.88
2023-05-13T15:55:27.405Z,99560.23
2023-05-13T15:57:55.357Z,99556.27
2023-05-13T16:00:24.681Z,99555.08
2023-05-13T16:02:52.925Z,99551.14
2023-05-13T16:05:21.092Z,99547.02
2023-05-13T16:07:49.027Z,99549.29
2023-05-13T16:10:16.998Z,99544.15
2023-05-13T16:12:44.963Z,99550.50
2023-05-13T16:15:12.886Z,99549.88
2023-05-13T16:17:43.413Z,99544.69
2023-05-13T16:20:12.041Z,99541.80
2023-05-13T16:22:40.135Z,99542.73
2023-05-13T16:25:10.387Z,99541.67
2023-05-13T16:27:39.633Z,99537.70
2023-05-13T16:30:08.015Z,99540.98
2023-05-13T16:32:36.562Z,99539.38
2023-05-13T16:35:05.711Z,99535.30
2023-05-13T16:37:36.706Z,99534.27
2023-05-13T16:40:05.404Z,99533.10
2023-05-13T16:42:33.330Z,99533.66
2023-05-13T16:45:01.759Z,99535.60
2023-05-13T16:47:29.882Z,99535.30
2023-05-13T16:49:57.858Z,99536.65
2023-05-13T16:52:26.098Z,99536.89
2023-05-13T16:54:56.591Z,99537.30
2023-05-13T16:57:25.786Z,99534.42
2023-05-13T16:59:53.675Z,99533.33
2023-05-13T17:02:21.743Z,99534.21
2023-05-13T17:04:49.812Z,99534.11
2023-05-13T17:07:17.790Z,99533.61
2023-05-13T17:09:45.882Z,99535.86
2023-05-13T17:12:13.854Z,99533.80
2023-05-13T17:14:41.891Z,99534.69
2023-05-13T17:17:09.979Z,99532.19
2023-05-13T17:19:38.125Z,99530.36
2023-05-13T17:22:06.093Z,99531.18
2023-05-13T17:24:34.089Z,99532.77
2023-05-13T17:27:02.053Z,99531.13
2023-05-13T17:29:30.052Z,99525.71
2023-05-13T17:31:58.033Z,99527.05
2023-05-13T17:34:26.017Z,99526.46
2023-05-13T17:36:53.928Z,99530.50
2023-05-13T17:39:21.866Z,99527.82
2023-05-13T17:41:49.807Z,99530.24
2023-05-13T17:44:19.989Z,99530.98
2023-05-13T17:46:47.936Z,99531.69
2023-05-13T17:49:16.014Z,99526.26
2023-05-13T17:51:43.931Z,99528.14
2023-05-13T17:54:12.077Z,99530.29
2023-05-13T17:56:40.061Z,99531.09
2023-05-13T17:59:08.018Z,99531.19
2023-05-13T18:01:35.969Z,99536.70
2023-05-13T18:04:03.926Z,99537.42
2023-05-13T18:06:32.293Z,99536.58
2023-05-13T18:09:00.408Z,99535.13
2023-05-13T18:11:28.289Z,99537.73
2023-05-13T18:13:56.325Z,99540.14
2023-05-13T18:16:24.437Z,99542.32
2023-05-13T18:18:52.436Z,99542.55
2023-05-13T18:21:20.489Z,99543.63
2023-05-13T18:23:48.388Z,99540.98
2023-05-13T18:26:16.379Z,99542.34
2023-05-13T18:28:46.901Z,99545.39
2023-05-13T18:31:14.908Z,99547.21
2023-05-13T18:33:42.852Z,99545.95
2023-05-13T18:36:10.835Z,99547.27
2023-05-13T18:38:39.614Z,99551.67
2023-05-13T18:41:07.550Z,99552.29
2023-05-13T18:43:35.759Z,99551.80
2023-05-13T18:46:03.816Z,99554.64
2023-05-13T18:48:31.776Z,99556.98
2023-05-13T18:50:59.940Z,99555.30
2023-05-13T18:53:28.035Z,99555.62
2023-05-13T18:55:56.183Z,99560.84
2023-05-13T18:58:24.859Z,99561.52
2023-05-13T19:00:52.942Z,99562.34
2023-05-13T19:03:20.988Z,99563.44
2023-05-13T19:05:49.095Z,99564.33
2023-05-13T19:08:17.055Z,99564.29
2023-05-13T19:10:45.030Z,99569.02
2023-05-13T19:13:14.632Z,99570.23
2023-05-13T19:15:42.687Z,99570.55
2023-05-13T19:18:10.868Z,99571.21
2023-05-13T19:20:38.929Z,99575.73
2023-05-13T19:23:06.940Z,99573.50
2023-05-13T19:25:35.644Z,99572.80
2023-05-13T19:28:03.758Z,99573.70
2023-05-13T19:30:31.646Z,99578.10
2023-05-13T19:32:59.802Z,99576.39
2023-05-13T19:35:27.874Z,99581.44
2023-05-13T19:37:56.400Z,99580.27
2023-05-13T19:40:24.508Z,99577.44
2023-05-13T19:42:52.837Z,99577.13
2023-05-13T19:45:21.100Z,99578.58
2023-05-13T19:47:49.703Z,99580.16
2023-05-13T19:50:18.222Z,99580.92
2023-05-13T19:52:46.191Z,99585.36
2023-05-13T19:55:14.203Z,99588.98
2023-05-13T19:57:42.998Z,99587.98
2023-05-13T20:00:12.024Z,99587.90
2023-05-13T20:02:40.321Z,99585.48
2023-05-13T20:05:08.744Z,99585.27
2023-05-13T20:07:36.748Z,99586.37
2023-05-13T20:10:06.197Z,99587.59
2023-05-13T20:12:34.157Z,99585.16
2023-05-13T20:15:03.483Z,99587.31
2023-05-13T20:17:31.891Z,99586.77
2023-05-13T20:20:00.037Z,99584.27
2023-05-13T20:22:28.076Z,99579.66
2023-05-13T20:24:56.023Z,99579.42
2023-05-13T20:27:23.894Z,99578.29
2023-05-13T20:29:52.493Z,99579.94
2023-05-13T20:32:24.834Z,99578.46
2023-05-13T20:34:54.549Z,99575.88
2023-05-13T20:37:23.925Z,99574.02
2023-05-13T20:39:52.352Z,99573.69
2023-05-13T20:42:22.405Z,99575.13
2023-05-13T20:44:51.560Z,99577.44
2023-05-13T20:47:20.626Z,99576.75
2023-05-13T20:49:48.544Z,99573.41
2023-05-13T20:52:16.755Z,99574.50
2023-05-13T20:54:44.762Z,99578.92
2023-05-13T20:57:12.661Z,99581.04
2023-05-13T20:59:40.630Z,99582.49
2023-05-13T21:02:08.617Z,99581.28
2023-05-13T21:04:36.668Z,99581.64
2023-05-13T21:07:06.764Z,99583.23
2023-05-13T21:09:34.788Z,99584.50
2023-05-13T21:12:02.717Z,99583.63
2023-05-13T21:14:30.680Z,99581.73
2023-05-13T21:17:02.881Z,99581.61
2023-05-13T21:19:30.985Z,99580.27
2023-05-13T21:22:01.630Z,99577.70
2023-05-13T21:24:29.678Z,99580.27
2023-05-13T21:26:57.538Z,99576.92
2023-05-13T21:29:25.510Z,99575.17
2023-05-13T21:31:54.573Z,99570.55
2023-05-13T21:34:22.470Z,99569.98
2023-05-13T21:36:50.733Z,99563.63
2023-05-13T21:39:18.761Z,99560.36
2023-05-13T21:41:47.709Z,99559.38
2023-05-13T21:44:15.689Z,99560.52
2023-05-13T21:46:43.616Z,99562.74
2023-05-13T21:49:12.018Z,99557.47
2023-05-13T21:51:40.129Z,99560.27
2023-05-13T21:54:08.100Z,99561.83
2023-05-13T21:56:36.047Z,99565.17
2023-05-13T21:59:04.057Z,99563.77
2023-05-13T22:01:32.021Z,99564.50
2023-05-13T22:04:00.049Z,99570.17
2023-05-13T22:06:28.105Z,99568.80
2023-05-13T22:08:56.043Z,99564.90
2023-05-13T22:11:23.870Z,99564.79
2023-05-13T22:13:51.874Z,99561.38
2023-05-13T22:16:19.955Z,99563.48
2023-05-13T22:18:49.873Z,99561.48
2023-05-13T22:21:17.947Z,99563.16
2023-05-13T22:23:45.922Z,99562.13
2023-05-13T22:26:13.826Z,99559.02
2023-05-13T22:28:41.770Z,99555.79
2023-05-13T22:31:09.676Z,99556.35
2023-05-13T22:33:37.744Z,99557.17
2023-05-13T22:36:05.847Z,99564.28
2023-05-13T22:38:33.729Z,99564.95
2023-05-13T22:41:01.792Z,99561.22
2023-05-13T22:43:29.637Z,99559.09
2023-05-13T22:45:57.593Z,99555.59
2023-05-13T22:48:25.496Z,99552.34
2023-05-13T22:50:54.221Z,99550.67
2023-05-13T22:53:24.135Z,99545.35
2023-05-13T22:55:52.252Z,99540.69
2023-05-13T22:58:21.226Z,99540.55
2023-05-13T23:00:49.965Z,99546.26
2023-05-13T23:03:17.950Z,99540.76
2023-05-13T23:05:45.961Z,99543.70
2023-05-13T23:08:13.901Z,99546.30
2023-05-13T23:10:41.856Z,99548.53
2023-05-13T23:13:09.774Z,99545.69
2023-05-13T23:15:37.696Z,99546.90
2023-05-13T23:18:05.734Z,99546.00
2023-05-13T23:20:33.716Z,99549.16
2023-05-13T23:23:01.680Z,99551.42
2023-05-13T23:25:29.643Z,99548.79
2023-05-13T23:27:57.559Z,99542.99
2023-05-13T23:30:25.588Z,99543.36
2023-05-13T23:32:53.840Z,99537.34
2023-05-13T23:35:21.913Z,99531.70
2023-05-13T23:37:49.841Z,99528.77
2023-05-13T23:40:17.867Z,99530.83
2023-05-13T23:42:45.732Z,99525.48
2023-05-13T23:45:13.638Z,99525.02
2023-05-13T23:47:41.614Z,99523.53
2023-05-13T23:50:09.971Z,99522.55
2023-05-13T23:52:37.948Z,99522.64
2023-05-13T23:55:06.485Z,99523.42
2023-05-13T23:57:34.349Z,99521.09
